sensor_id;sensor_type;location;lat;lon;timestamp;P1;durP1;ratioP1;P2;durP2;ratioP2
63874;SDS011;51595;24.180;-110.296;2022-08-27T00:02:14;5.55;;;1.20;;
63874;SDS011;51595;24.180;-110.296;2022-08-27T00:04:41;3.42;;;1.25;;
63874;SDS011;51595;24.180;-110.296;2022-08-27T00:07:12;3.00;;;1.17;;
63874;SDS011;51595;24.180;-110.296;2022-08-27T00:09:39;2.92;;;1.38;;
63874;SDS011;51595;24.180;-110.296;2022-08-27T00:12:07;3.78;;;1.30;;
63874;SDS011;51595;24.180;-110.296;2022-08-27T00:14:35;5.00;;;1.02;;
63874;SDS011;51595;24.180;-110.296;2022-08-27T00:17:03;2.00;;;0.93;;
63874;SDS011;51595;24.180;-110.296;2022-08-27T00:19:31;3.53;;;1.30;;
63874;SDS011;51595;24.180;-110.296;2022-08-27T00:21:57;3.83;;;1.05;;
63874;SDS011;51595;24.180;-110.296;2022-08-27T00:24:24;2.03;;;1.02;;
63874;SDS011;51595;24.180;-110.296;2022-08-27T00:26:50;3.08;;;1.08;;
63874;SDS011;51595;24.180;-110.296;2022-08-27T00:29:18;4.63;;;1.20;;
63874;SDS011;51595;24.180;-110.296;2022-08-27T00:31:45;9.88;;;1.98;;
63874;SDS011;51595;24.180;-110.296;2022-08-27T00:34:11;5.47;;;1.05;;
63874;SDS011;51595;24.180;-110.296;2022-08-27T00:36:38;5.15;;;1.25;;
63874;SDS011;51595;24.180;-110.296;2022-08-27T00:39:06;5.45;;;1.30;;
63874;SDS011;51595;24.180;-110.296;2022-08-27T00:41:32;7.32;;;1.83;;
63874;SDS011;51595;24.180;-110.296;2022-08-27T00:44:00;4.63;;;1.35;;
63874;SDS011;51595;24.180;-110.296;2022-08-27T00:46:49;8.43;;;2.22;;
63874;SDS011;51595;24.180;-110.296;2022-08-27T00:52:05;13.55;;;2.72;;
63874;SDS011;51595;24.180;-110.296;2022-08-27T00:54:36;14.13;;;2.83;;
63874;SDS011;51595;24.180;-110.296;2022-08-27T00:57:03;15.60;;;2.78;;
63874;SDS011;51595;24.180;-110.296;2022-08-27T00:59:30;16.40;;;3.78;;
63874;SDS011;51595;24.180;-110.296;2022-08-27T01:01:57;17.02;;;3.78;;
63874;SDS011;51595;24.180;-110.296;2022-08-27T01:04:48;14.95;;;3.75;;
63874;SDS011;51595;24.180;-110.296;2022-08-27T01:07:37;20.73;;;4.43;;
63874;SDS011;51595;24.180;-110.296;2022-08-27T01:10:06;20.85;;;3.75;;
63874;SDS011;51595;24.180;-110.296;2022-08-27T01:12:36;15.70;;;4.28;;
63874;SDS011;51595;24.180;-110.296;2022-08-27T01:15:04;20.58;;;4.60;;
63874;SDS011;51595;24.180;-110.296;2022-08-27T01:17:34;14.57;;;4.05;;
63874;SDS011;51595;24.180;-110.296;2022-08-27T01:20:04;17.85;;;4.15;;
63874;SDS011;51595;24.180;-110.296;2022-08-27T01:22:44;18.23;;;4.25;;
63874;SDS011;51595;24.180;-110.296;2022-08-27T01:25:16;19.83;;;4.03;;
63874;SDS011;51595;24.180;-110.296;2022-08-27T01:27:46;20.65;;;4.03;;
63874;SDS011;51595;24.180;-110.296;2022-08-27T01:30:13;17.38;;;4.38;;
63874;SDS011;51595;24.180;-110.296;2022-08-27T01:32:42;16.33;;;4.22;;
63874;SDS011;51595;24.180;-110.296;2022-08-27T01:35:10;22.73;;;4.47;;
63874;SDS011;51595;24.180;-110.296;2022-08-27T01:37:39;23.05;;;4.78;;
63874;SDS011;51595;24.180;-110.296;2022-08-27T01:40:07;15.55;;;4.28;;
63874;SDS011;51595;24.180;-110.296;2022-08-27T01:42:38;18.98;;;5.13;;
63874;SDS011;51595;24.180;-110.296;2022-08-27T01:45:09;19.02;;;4.50;;
63874;SDS011;51595;24.180;-110.296;2022-08-27T01:47:41;20.60;;;4.35;;
63874;SDS011;51595;24.180;-110.296;2022-08-27T01:50:09;21.50;;;4.30;;
63874;SDS011;51595;24.180;-110.296;2022-08-27T01:52:39;20.33;;;4.75;;
63874;SDS011;51595;24.180;-110.296;2022-08-27T01:55:06;16.77;;;4.25;;
63874;SDS011;51595;24.180;-110.296;2022-08-27T01:57:35;14.73;;;4.00;;
63874;SDS011;51595;24.180;-110.296;2022-08-27T02:00:03;21.30;;;4.90;;
63874;SDS011;51595;24.180;-110.296;2022-08-27T02:02:32;18.05;;;4.30;;
63874;SDS011;51595;24.180;-110.296;2022-08-27T02:04:59;17.02;;;4.43;;
63874;SDS011;51595;24.180;-110.296;2022-08-27T02:07:25;15.25;;;4.07;;
63874;SDS011;51595;24.180;-110.296;2022-08-27T02:09:52;20.17;;;4.80;;
63874;SDS011;51595;24.180;-110.296;2022-08-27T02:12:18;14.82;;;4.13;;
63874;SDS011;51595;24.180;-110.296;2022-08-27T02:14:45;19.52;;;4.82;;
63874;SDS011;51595;24.180;-110.296;2022-08-27T02:17:11;19.55;;;4.00;;
63874;SDS011;51595;24.180;-110.296;2022-08-27T02:19:39;19.73;;;4.50;;
63874;SDS011;51595;24.180;-110.296;2022-08-27T02:22:07;16.95;;;3.95;;
63874;SDS011;51595;24.180;-110.296;2022-08-27T02:24:34;18.20;;;4.50;;
63874;SDS011;51595;24.180;-110.296;2022-08-27T02:27:00;15.27;;;4.38;;
63874;SDS011;51595;24.180;-110.296;2022-08-27T02:29:27;20.17;;;4.32;;
63874;SDS011;51595;24.180;-110.296;2022-08-27T02:31:53;21.15;;;4.90;;
63874;SDS011;51595;24.180;-110.296;2022-08-27T02:34:20;14.95;;;4.07;;
63874;SDS011;51595;24.180;-110.296;2022-08-27T02:36:47;22.48;;;4.10;;
63874;SDS011;51595;24.180;-110.296;2022-08-27T02:39:14;24.55;;;5.18;;
63874;SDS011;51595;24.180;-110.296;2022-08-27T02:41:41;19.60;;;4.53;;
63874;SDS011;51595;24.180;-110.296;2022-08-27T02:44:07;17.50;;;5.13;;
63874;SDS011;51595;24.180;-110.296;2022-08-27T02:46:35;22.52;;;4.70;;
63874;SDS011;51595;24.180;-110.296;2022-08-27T02:49:05;21.73;;;4.82;;
63874;SDS011;51595;24.180;-110.296;2022-08-27T02:51:34;16.13;;;4.78;;
63874;SDS011;51595;24.180;-110.296;2022-08-27T02:54:01;17.48;;;4.65;;
63874;SDS011;51595;24.180;-110.296;2022-08-27T02:56:27;18.83;;;4.70;;
63874;SDS011;51595;24.180;-110.296;2022-08-27T02:58:54;20.55;;;4.63;;
63874;SDS011;51595;24.180;-110.296;2022-08-27T03:01:20;20.48;;;5.72;;
63874;SDS011;51595;24.180;-110.296;2022-08-27T03:03:47;33.25;;;6.63;;
63874;SDS011;51595;24.180;-110.296;2022-08-27T03:06:13;19.70;;;5.07;;
63874;SDS011;51595;24.180;-110.296;2022-08-27T03:08:40;24.13;;;5.22;;
63874;SDS011;51595;24.180;-110.296;2022-08-27T03:11:06;22.08;;;4.57;;
63874;SDS011;51595;24.180;-110.296;2022-08-27T03:13:36;29.85;;;5.53;;
63874;SDS011;51595;24.180;-110.296;2022-08-27T03:16:05;20.15;;;5.15;;
63874;SDS011;51595;24.180;-110.296;2022-08-27T03:18:32;24.10;;;5.15;;
63874;SDS011;51595;24.180;-110.296;2022-08-27T03:20:59;18.25;;;4.35;;
63874;SDS011;51595;24.180;-110.296;2022-08-27T03:23:28;19.83;;;4.72;;
63874;SDS011;51595;24.180;-110.296;2022-08-27T03:25:58;19.02;;;4.57;;
63874;SDS011;51595;24.180;-110.296;2022-08-27T03:28:27;15.70;;;4.30;;
63874;SDS011;51595;24.180;-110.296;2022-08-27T03:30:59;28.58;;;5.20;;
63874;SDS011;51595;24.180;-110.296;2022-08-27T03:33:27;17.90;;;5.35;;
63874;SDS011;51595;24.180;-110.296;2022-08-27T03:35:55;24.60;;;5.78;;
63874;SDS011;51595;24.180;-110.296;2022-08-27T03:38:22;24.85;;;5.65;;
63874;SDS011;51595;24.180;-110.296;2022-08-27T03:40:49;22.67;;;4.80;;
63874;SDS011;51595;24.180;-110.296;2022-08-27T03:43:17;22.58;;;5.30;;
63874;SDS011;51595;24.180;-110.296;2022-08-27T03:45:47;19.05;;;4.68;;
63874;SDS011;51595;24.180;-110.296;2022-08-27T03:48:14;23.70;;;6.28;;
63874;SDS011;51595;24.180;-110.296;2022-08-27T03:50:43;24.70;;;5.43;;
63874;SDS011;51595;24.180;-110.296;2022-08-27T03:53:12;19.27;;;4.97;;
63874;SDS011;51595;24.180;-110.296;2022-08-27T03:55:40;17.20;;;4.50;;
63874;SDS011;51595;24.180;-110.296;2022-08-27T03:58:07;22.65;;;5.18;;
63874;SDS011;51595;24.180;-110.296;2022-08-27T04:00:35;26.80;;;5.75;;
63874;SDS011;51595;24.180;-110.296;2022-08-27T04:03:03;22.40;;;5.10;;
63874;SDS011;51595;24.180;-110.296;2022-08-27T04:05:33;22.25;;;4.90;;
63874;SDS011;51595;24.180;-110.296;2022-08-27T04:08:01;28.83;;;6.00;;
63874;SDS011;51595;24.180;-110.296;2022-08-27T04:10:27;24.25;;;5.60;;
63874;SDS011;51595;24.180;-110.296;2022-08-27T04:12:54;21.52;;;4.97;;
63874;SDS011;51595;24.180;-110.296;2022-08-27T04:15:20;20.02;;;4.47;;
63874;SDS011;51595;24.180;-110.296;2022-08-27T04:17:55;22.33;;;5.00;;
63874;SDS011;51595;24.180;-110.296;2022-08-27T04:20:22;24.10;;;5.30;;
63874;SDS011;51595;24.180;-110.296;2022-08-27T04:22:49;18.42;;;5.20;;
63874;SDS011;51595;24.180;-110.296;2022-08-27T04:25:16;21.80;;;5.32;;
63874;SDS011;51595;24.180;-110.296;2022-08-27T04:27:43;28.15;;;5.10;;
63874;SDS011;51595;24.180;-110.296;2022-08-27T04:30:10;20.05;;;4.63;;
63874;SDS011;51595;24.180;-110.296;2022-08-27T04:32:39;24.92;;;5.63;;
63874;SDS011;51595;24.180;-110.296;2022-08-27T04:35:06;27.88;;;4.20;;
63874;SDS011;51595;24.180;-110.296;2022-08-27T04:37:33;19.85;;;4.97;;
63874;SDS011;51595;24.180;-110.296;2022-08-27T04:39:59;17.20;;;4.53;;
63874;SDS011;51595;24.180;-110.296;2022-08-27T04:42:26;21.58;;;5.25;;
63874;SDS011;51595;24.180;-110.296;2022-08-27T04:44:52;26.20;;;5.53;;
63874;SDS011;51595;24.180;-110.296;2022-08-27T04:47:19;19.75;;;4.70;;
63874;SDS011;51595;24.180;-110.296;2022-08-27T04:49:45;18.70;;;4.70;;
63874;SDS011;51595;24.180;-110.296;2022-08-27T04:52:12;18.58;;;4.53;;
63874;SDS011;51595;24.180;-110.296;2022-08-27T04:54:40;25.48;;;5.53;;
63874;SDS011;51595;24.180;-110.296;2022-08-27T04:57:07;21.17;;;4.82;;
63874;SDS011;51595;24.180;-110.296;2022-08-27T04:59:34;25.10;;;5.85;;
63874;SDS011;51595;24.180;-110.296;2022-08-27T05:02:02;25.17;;;5.50;;
63874;SDS011;51595;24.180;-110.296;2022-08-27T05:04:29;25.88;;;6.20;;
63874;SDS011;51595;24.180;-110.296;2022-08-27T05:06:58;20.35;;;5.15;;
63874;SDS011;51595;24.180;-110.296;2022-08-27T05:09:25;25.30;;;5.88;;
63874;SDS011;51595;24.180;-110.296;2022-08-27T05:11:52;20.38;;;5.72;;
63874;SDS011;51595;24.180;-110.296;2022-08-27T05:14:19;27.27;;;5.65;;
63874;SDS011;51595;24.180;-110.296;2022-08-27T05:16:47;22.75;;;5.50;;
63874;SDS011;51595;24.180;-110.296;2022-08-27T05:19:14;23.67;;;5.18;;
63874;SDS011;51595;24.180;-110.296;2022-08-27T05:21:45;22.73;;;6.22;;
63874;SDS011;51595;24.180;-110.296;2022-08-27T05:24:13;25.40;;;5.75;;
63874;SDS011;51595;24.180;-110.296;2022-08-27T05:26:40;21.60;;;5.18;;
63874;SDS011;51595;24.180;-110.296;2022-08-27T05:29:07;23.75;;;5.45;;
63874;SDS011;51595;24.180;-110.296;2022-08-27T05:31:34;23.13;;;5.80;;
63874;SDS011;51595;24.180;-110.296;2022-08-27T05:34:04;18.80;;;5.05;;
63874;SDS011;51595;24.180;-110.296;2022-08-27T05:36:32;24.42;;;6.07;;
63874;SDS011;51595;24.180;-110.296;2022-08-27T05:39:00;27.15;;;6.22;;
63874;SDS011;51595;24.180;-110.296;2022-08-27T05:41:29;23.52;;;5.53;;
63874;SDS011;51595;24.180;-110.296;2022-08-27T05:43:58;24.30;;;5.00;;
63874;SDS011;51595;24.180;-110.296;2022-08-27T05:46:26;23.23;;;5.28;;
63874;SDS011;51595;24.180;-110.296;2022-08-27T05:48:57;21.83;;;4.78;;
63874;SDS011;51595;24.180;-110.296;2022-08-27T05:51:32;20.75;;;5.32;;
63874;SDS011;51595;24.180;-110.296;2022-08-27T05:54:01;24.77;;;5.73;;
63874;SDS011;51595;24.180;-110.296;2022-08-27T05:56:32;20.20;;;5.07;;
63874;SDS011;51595;24.180;-110.296;2022-08-27T05:59:00;19.67;;;5.38;;
63874;SDS011;51595;24.180;-110.296;2022-08-27T06:01:48;23.40;;;5.22;;
63874;SDS011;51595;24.180;-110.296;2022-08-27T06:04:16;25.65;;;4.72;;
63874;SDS011;51595;24.180;-110.296;2022-08-27T06:06:45;17.85;;;4.78;;
63874;SDS011;51595;24.180;-110.296;2022-08-27T06:09:14;19.08;;;5.07;;
63874;SDS011;51595;24.180;-110.296;2022-08-27T06:11:42;16.70;;;4.80;;
63874;SDS011;51595;24.180;-110.296;2022-08-27T06:14:10;18.27;;;4.70;;
63874;SDS011;51595;24.180;-110.296;2022-08-27T06:16:37;19.85;;;4.57;;
63874;SDS011;51595;24.180;-110.296;2022-08-27T06:19:05;18.75;;;4.55;;
63874;SDS011;51595;24.180;-110.296;2022-08-27T06:21:32;22.30;;;4.80;;
63874;SDS011;51595;24.180;-110.296;2022-08-27T06:23:59;20.40;;;4.40;;
63874;SDS011;51595;24.180;-110.296;2022-08-27T06:26:26;16.52;;;4.63;;
63874;SDS011;51595;24.180;-110.296;2022-08-27T06:28:53;21.02;;;5.20;;
63874;SDS011;51595;24.180;-110.296;2022-08-27T06:31:23;22.23;;;4.85;;
63874;SDS011;51595;24.180;-110.296;2022-08-27T06:33:52;18.98;;;4.85;;
63874;SDS011;51595;24.180;-110.296;2022-08-27T06:36:23;22.65;;;4.80;;
63874;SDS011;51595;24.180;-110.296;2022-08-27T06:38:50;15.18;;;4.57;;
63874;SDS011;51595;24.180;-110.296;2022-08-27T06:41:17;13.98;;;4.45;;
63874;SDS011;51595;24.180;-110.296;2022-08-27T06:43:47;19.52;;;4.70;;
63874;SDS011;51595;24.180;-110.296;2022-08-27T06:46:15;24.85;;;5.40;;
63874;SDS011;51595;24.180;-110.296;2022-08-27T06:48:43;20.08;;;4.80;;
63874;SDS011;51595;24.180;-110.296;2022-08-27T06:51:14;17.95;;;4.90;;
63874;SDS011;51595;24.180;-110.296;2022-08-27T06:53:43;21.20;;;4.00;;
63874;SDS011;51595;24.180;-110.296;2022-08-27T06:56:12;21.15;;;4.78;;
63874;SDS011;51595;24.180;-110.296;2022-08-27T06:58:40;20.42;;;4.95;;
63874;SDS011;51595;24.180;-110.296;2022-08-27T07:01:13;23.15;;;4.60;;
63874;SDS011;51595;24.180;-110.296;2022-08-27T07:03:42;17.65;;;4.72;;
63874;SDS011;51595;24.180;-110.296;2022-08-27T07:06:09;25.73;;;5.35;;
63874;SDS011;51595;24.180;-110.296;2022-08-27T07:08:37;20.75;;;5.00;;
63874;SDS011;51595;24.180;-110.296;2022-08-27T07:11:06;20.25;;;4.78;;
63874;SDS011;51595;24.180;-110.296;2022-08-27T07:13:37;22.10;;;4.50;;
63874;SDS011;51595;24.180;-110.296;2022-08-27T07:16:10;16.95;;;3.80;;
63874;SDS011;51595;24.180;-110.296;2022-08-27T07:18:38;18.33;;;4.40;;
63874;SDS011;51595;24.180;-110.296;2022-08-27T07:21:05;15.05;;;3.80;;
63874;SDS011;51595;24.180;-110.296;2022-08-27T07:23:33;16.15;;;4.20;;
63874;SDS011;51595;24.180;-110.296;2022-08-27T07:26:04;20.20;;;3.90;;
63874;SDS011;51595;24.180;-110.296;2022-08-27T07:28:32;20.95;;;4.60;;
63874;SDS011;51595;24.180;-110.296;2022-08-27T07:30:59;19.15;;;5.35;;
63874;SDS011;51595;24.180;-110.296;2022-08-27T07:33:25;19.80;;;5.50;;
63874;SDS011;51595;24.180;-110.296;2022-08-27T07:35:52;21.27;;;4.00;;
63874;SDS011;51595;24.180;-110.296;2022-08-27T07:38:19;15.10;;;3.97;;
63874;SDS011;51595;24.180;-110.296;2022-08-27T07:40:45;17.77;;;4.07;;
63874;SDS011;51595;24.180;-110.296;2022-08-27T07:43:12;15.85;;;4.45;;
63874;SDS011;51595;24.180;-110.296;2022-08-27T07:45:59;16.48;;;4.15;;
63874;SDS011;51595;24.180;-110.296;2022-08-27T07:48:27;23.20;;;4.55;;
63874;SDS011;51595;24.180;-110.296;2022-08-27T07:50:54;18.38;;;3.83;;
63874;SDS011;51595;24.180;-110.296;2022-08-27T07:53:20;21.05;;;4.57;;
63874;SDS011;51595;24.180;-110.296;2022-08-27T07:55:46;21.15;;;3.97;;
63874;SDS011;51595;24.180;-110.296;2022-08-27T07:58:13;19.35;;;4.03;;
63874;SDS011;51595;24.180;-110.296;2022-08-27T08:00:41;18.65;;;4.30;;
63874;SDS011;51595;24.180;-110.296;2022-08-27T08:03:10;14.57;;;3.75;;
63874;SDS011;51595;24.180;-110.296;2022-08-27T08:05:43;18.50;;;3.70;;
63874;SDS011;51595;24.180;-110.296;2022-08-27T08:08:09;16.58;;;4.13;;
63874;SDS011;51595;24.180;-110.296;2022-08-27T08:10:37;16.48;;;3.92;;
63874;SDS011;51595;24.180;-110.296;2022-08-27T08:13:05;22.10;;;4.22;;
63874;SDS011;51595;24.180;-110.296;2022-08-27T08:15:32;21.42;;;4.38;;
63874;SDS011;51595;24.180;-110.296;2022-08-27T08:17:59;21.80;;;4.65;;
63874;SDS011;51595;24.180;-110.296;2022-08-27T08:20:25;17.17;;;4.20;;
63874;SDS011;51595;24.180;-110.296;2022-08-27T08:22:52;19.00;;;4.68;;
63874;SDS011;51595;24.180;-110.296;2022-08-27T08:25:18;17.20;;;4.32;;
63874;SDS011;51595;24.180;-110.296;2022-08-27T08:27:45;17.90;;;4.65;;
63874;SDS011;51595;24.180;-110.296;2022-08-27T08:30:12;18.58;;;5.00;;
63874;SDS011;51595;24.180;-110.296;2022-08-27T08:32:39;20.38;;;4.38;;
63874;SDS011;51595;24.180;-110.296;2022-08-27T08:35:05;31.50;;;5.38;;
63874;SDS011;51595;24.180;-110.296;2022-08-27T08:37:32;17.98;;;4.43;;
63874;SDS011;51595;24.180;-110.296;2022-08-27T08:40:00;19.35;;;4.57;;
63874;SDS011;51595;24.180;-110.296;2022-08-27T08:42:43;19.77;;;4.55;;
63874;SDS011;51595;24.180;-110.296;2022-08-27T08:45:16;14.40;;;4.00;;
63874;SDS011;51595;24.180;-110.296;2022-08-27T08:48:11;23.02;;;5.03;;
63874;SDS011;51595;24.180;-110.296;2022-08-27T08:53:37;20.30;;;4.27;;
63874;SDS011;51595;24.180;-110.296;2022-08-27T09:01:49;24.85;;;4.50;;
63874;SDS011;51595;24.180;-110.296;2022-08-27T09:04:16;18.15;;;3.92;;
63874;SDS011;51595;24.180;-110.296;2022-08-27T09:12:25;19.38;;;4.97;;
63874;SDS011;51595;24.180;-110.296;2022-08-27T09:15:14;22.95;;;4.72;;
63874;SDS011;51595;24.180;-110.296;2022-08-27T09:17:44;17.55;;;4.80;;
63874;SDS011;51595;24.180;-110.296;2022-08-27T09:20:13;17.23;;;4.63;;
63874;SDS011;51595;24.180;-110.296;2022-08-27T09:25:31;18.83;;;4.93;;
63874;SDS011;51595;24.180;-110.296;2022-08-27T09:28:01;18.35;;;4.43;;
63874;SDS011;51595;24.180;-110.296;2022-08-27T09:30:59;19.20;;;4.15;;
63874;SDS011;51595;24.180;-110.296;2022-08-27T09:33:30;22.25;;;4.68;;
63874;SDS011;51595;24.180;-110.296;2022-08-27T09:35:59;22.23;;;4.68;;
63874;SDS011;51595;24.180;-110.296;2022-08-27T09:38:29;17.20;;;4.45;;
63874;SDS011;51595;24.180;-110.296;2022-08-27T09:40:59;21.23;;;4.82;;
63874;SDS011;51595;24.180;-110.296;2022-08-27T09:43:30;19.10;;;4.70;;
63874;SDS011;51595;24.180;-110.296;2022-08-27T09:45:59;21.00;;;4.50;;
63874;SDS011;51595;24.180;-110.296;2022-08-27T09:48:31;18.88;;;4.63;;
63874;SDS011;51595;24.180;-110.296;2022-08-27T09:51:00;20.08;;;4.00;;
63874;SDS011;51595;24.180;-110.296;2022-08-27T09:53:42;22.88;;;4.68;;
63874;SDS011;51595;24.180;-110.296;2022-08-27T09:59:11;21.92;;;4.80;;
63874;SDS011;51595;24.180;-110.296;2022-08-27T10:04:40;13.73;;;4.25;;
63874;SDS011;51595;24.180;-110.296;2022-08-27T10:07:29;17.77;;;4.75;;
63874;SDS011;51595;24.180;-110.296;2022-08-27T10:10:15;23.80;;;5.65;;
63874;SDS011;51595;24.180;-110.296;2022-08-27T10:13:19;18.23;;;4.47;;
63874;SDS011;51595;24.180;-110.296;2022-08-27T10:16:05;20.20;;;4.63;;
63874;SDS011;51595;24.180;-110.296;2022-08-27T10:21:56;22.98;;;5.18;;
63874;SDS011;51595;24.180;-110.296;2022-08-27T10:33:32;16.98;;;4.82;;
63874;SDS011;51595;24.180;-110.296;2022-08-27T10:36:30;21.73;;;4.45;;
63874;SDS011;51595;24.180;-110.296;2022-08-27T10:39:08;17.30;;;4.63;;
63874;SDS011;51595;24.180;-110.296;2022-08-27T10:41:44;20.10;;;5.20;;
63874;SDS011;51595;24.180;-110.296;2022-08-27T10:44:50;22.35;;;5.63;;
63874;SDS011;51595;24.180;-110.296;2022-08-27T10:47:33;15.55;;;3.92;;
63874;SDS011;51595;24.180;-110.296;2022-08-27T10:50:32;18.85;;;4.85;;
63874;SDS011;51595;24.180;-110.296;2022-08-27T10:55:42;15.32;;;3.92;;
63874;SDS011;51595;24.180;-110.296;2022-08-27T10:58:26;18.55;;;4.32;;
63874;SDS011;51595;24.180;-110.296;2022-08-27T11:04:04;18.25;;;4.75;;
63874;SDS011;51595;24.180;-110.296;2022-08-27T11:09:15;16.10;;;4.43;;
63874;SDS011;51595;24.180;-110.296;2022-08-27T11:11:46;25.20;;;4.35;;
63874;SDS011;51595;24.180;-110.296;2022-08-27T11:14:34;15.73;;;4.00;;
63874;SDS011;51595;24.180;-110.296;2022-08-27T11:17:10;17.77;;;4.18;;
63874;SDS011;51595;24.180;-110.296;2022-08-27T11:23:00;19.65;;;3.78;;
63874;SDS011;51595;24.180;-110.296;2022-08-27T11:25:50;17.25;;;4.35;;
63874;SDS011;51595;24.180;-110.296;2022-08-27T11:36:35;16.17;;;4.60;;
63874;SDS011;51595;24.180;-110.296;2022-08-27T11:42:17;21.58;;;4.18;;
63874;SDS011;51595;24.180;-110.296;2022-08-27T11:45:05;20.27;;;4.60;;
63874;SDS011;51595;24.180;-110.296;2022-08-27T11:47:35;21.33;;;4.38;;
63874;SDS011;51595;24.180;-110.296;2022-08-27T11:50:03;16.95;;;4.07;;
63874;SDS011;51595;24.180;-110.296;2022-08-27T11:52:35;16.63;;;3.83;;
63874;SDS011;51595;24.180;-110.296;2022-08-27T11:57:39;18.55;;;4.82;;
63874;SDS011;51595;24.180;-110.296;2022-08-27T12:03:08;20.20;;;4.47;;
63874;SDS011;51595;24.180;-110.296;2022-08-27T12:13:49;18.80;;;4.40;;
63874;SDS011;51595;24.180;-110.296;2022-08-27T12:16:31;22.50;;;5.15;;
63874;SDS011;51595;24.180;-110.296;2022-08-27T12:32:25;13.95;;;3.97;;
63874;SDS011;51595;24.180;-110.296;2022-08-27T12:37:43;18.77;;;4.18;;
63874;SDS011;51595;24.180;-110.296;2022-08-27T12:40:20;20.25;;;4.85;;
63874;SDS011;51595;24.180;-110.296;2022-08-27T12:42:49;17.45;;;4.68;;
63874;SDS011;51595;24.180;-110.296;2022-08-27T12:45:18;19.65;;;5.07;;
63874;SDS011;51595;24.180;-110.296;2022-08-27T12:47:46;20.05;;;4.43;;
63874;SDS011;51595;24.180;-110.296;2022-08-27T12:50:18;21.30;;;5.40;;
63874;SDS011;51595;24.180;-110.296;2022-08-27T12:56:19;24.58;;;5.68;;
63874;SDS011;51595;24.180;-110.296;2022-08-27T13:04:26;19.00;;;6.17;;
63874;SDS011;51595;24.180;-110.296;2022-08-27T13:06:55;26.48;;;5.47;;
63874;SDS011;51595;24.180;-110.296;2022-08-27T13:09:35;20.70;;;5.00;;
63874;SDS011;51595;24.180;-110.296;2022-08-27T13:12:06;20.58;;;5.53;;
63874;SDS011;51595;24.180;-110.296;2022-08-27T13:14:41;23.83;;;6.00;;
63874;SDS011;51595;24.180;-110.296;2022-08-27T13:17:08;20.70;;;5.32;;
63874;SDS011;51595;24.180;-110.296;2022-08-27T13:19:45;22.00;;;5.95;;
63874;SDS011;51595;24.180;-110.296;2022-08-27T13:22:23;24.05;;;6.07;;
63874;SDS011;51595;24.180;-110.296;2022-08-27T13:24:52;26.13;;;6.25;;
63874;SDS011;51595;24.180;-110.296;2022-08-27T13:27:28;19.70;;;5.30;;
63874;SDS011;51595;24.180;-110.296;2022-08-27T13:29:57;18.98;;;5.10;;
63874;SDS011;51595;24.180;-110.296;2022-08-27T13:32:34;19.35;;;5.32;;
63874;SDS011;51595;24.180;-110.296;2022-08-27T13:35:02;17.92;;;5.53;;
63874;SDS011;51595;24.180;-110.296;2022-08-27T13:39:57;22.48;;;5.97;;
63874;SDS011;51595;24.180;-110.296;2022-08-27T13:42:24;25.27;;;6.00;;
63874;SDS011;51595;24.180;-110.296;2022-08-27T13:44:52;28.83;;;5.63;;
63874;SDS011;51595;24.180;-110.296;2022-08-27T13:47:26;21.42;;;5.15;;
63874;SDS011;51595;24.180;-110.296;2022-08-27T13:50:05;22.45;;;5.13;;
63874;SDS011;51595;24.180;-110.296;2022-08-27T13:52:38;22.45;;;5.47;;
63874;SDS011;51595;24.180;-110.296;2022-08-27T13:55:26;19.65;;;5.22;;
63874;SDS011;51595;24.180;-110.296;2022-08-27T13:57:55;20.65;;;5.13;;
63874;SDS011;51595;24.180;-110.296;2022-08-27T14:00:29;22.85;;;4.78;;
63874;SDS011;51595;24.180;-110.296;2022-08-27T14:02:57;22.50;;;5.35;;
63874;SDS011;51595;24.180;-110.296;2022-08-27T14:05:28;21.60;;;5.00;;
63874;SDS011;51595;24.180;-110.296;2022-08-27T14:08:09;21.38;;;5.55;;
63874;SDS011;51595;24.180;-110.296;2022-08-27T14:13:08;21.88;;;5.00;;
63874;SDS011;51595;24.180;-110.296;2022-08-27T14:15:46;19.05;;;5.05;;
63874;SDS011;51595;24.180;-110.296;2022-08-27T14:18:22;15.27;;;5.18;;
63874;SDS011;51595;24.180;-110.296;2022-08-27T14:20:52;22.73;;;4.78;;
63874;SDS011;51595;24.180;-110.296;2022-08-27T14:23:20;22.73;;;5.43;;
63874;SDS011;51595;24.180;-110.296;2022-08-27T14:25:48;31.25;;;6.57;;
63874;SDS011;51595;24.180;-110.296;2022-08-27T14:28:16;19.38;;;5.03;;
63874;SDS011;51595;24.180;-110.296;2022-08-27T14:30:42;26.10;;;4.55;;
63874;SDS011;51595;24.180;-110.296;2022-08-27T14:33:09;19.50;;;4.47;;
63874;SDS011;51595;24.180;-110.296;2022-08-27T14:35:35;20.15;;;4.88;;
63874;SDS011;51595;24.180;-110.296;2022-08-27T14:38:08;18.50;;;4.60;;
63874;SDS011;51595;24.180;-110.296;2022-08-27T14:40:46;28.70;;;5.30;;
63874;SDS011;51595;24.180;-110.296;2022-08-27T14:43:29;26.65;;;5.28;;
63874;SDS011;51595;24.180;-110.296;2022-08-27T14:45:56;21.90;;;4.47;;
63874;SDS011;51595;24.180;-110.296;2022-08-27T14:48:26;26.45;;;5.45;;
63874;SDS011;51595;24.180;-110.296;2022-08-27T14:51:03;22.05;;;6.00;;
63874;SDS011;51595;24.180;-110.296;2022-08-27T14:53:42;22.90;;;4.75;;
63874;SDS011;51595;24.180;-110.296;2022-08-27T14:56:08;18.13;;;4.97;;
63874;SDS011;51595;24.180;-110.296;2022-08-27T14:58:35;23.75;;;4.93;;
63874;SDS011;51595;24.180;-110.296;2022-08-27T15:01:02;25.30;;;5.95;;
63874;SDS011;51595;24.180;-110.296;2022-08-27T15:03:32;27.05;;;5.20;;
63874;SDS011;51595;24.180;-110.296;2022-08-27T15:06:02;22.25;;;4.88;;
63874;SDS011;51595;24.180;-110.296;2022-08-27T15:08:28;25.35;;;5.03;;
63874;SDS011;51595;24.180;-110.296;2022-08-27T15:10:55;16.30;;;3.80;;
63874;SDS011;51595;24.180;-110.296;2022-08-27T15:13:22;20.17;;;4.18;;
63874;SDS011;51595;24.180;-110.296;2022-08-27T15:15:50;21.77;;;4.90;;
63874;SDS011;51595;24.180;-110.296;2022-08-27T15:18:19;12.20;;;3.28;;
63874;SDS011;51595;24.180;-110.296;2022-08-27T15:20:45;13.90;;;3.70;;
63874;SDS011;51595;24.180;-110.296;2022-08-27T15:23:15;18.67;;;4.10;;
63874;SDS011;51595;24.180;-110.296;2022-08-27T15:25:45;13.02;;;3.83;;
63874;SDS011;51595;24.180;-110.296;2022-08-27T15:28:12;14.80;;;3.47;;
63874;SDS011;51595;24.180;-110.296;2022-08-27T15:30:38;16.13;;;3.40;;
63874;SDS011;51595;24.180;-110.296;2022-08-27T15:33:06;20.20;;;3.88;;
63874;SDS011;51595;24.180;-110.296;2022-08-27T15:35:33;24.02;;;4.47;;
63874;SDS011;51595;24.180;-110.296;2022-08-27T15:38:05;11.88;;;3.33;;
63874;SDS011;51595;24.180;-110.296;2022-08-27T15:40:35;20.00;;;3.47;;
63874;SDS011;51595;24.180;-110.296;2022-08-27T15:43:02;17.02;;;3.15;;
63874;SDS011;51595;24.180;-110.296;2022-08-27T15:45:31;10.50;;;3.13;;
63874;SDS011;51595;24.180;-110.296;2022-08-27T15:48:01;15.50;;;3.13;;
63874;SDS011;51595;24.180;-110.296;2022-08-27T15:50:28;12.73;;;3.42;;
63874;SDS011;51595;24.180;-110.296;2022-08-27T15:52:57;10.85;;;2.63;;
63874;SDS011;51595;24.180;-110.296;2022-08-27T15:55:27;15.45;;;3.78;;
63874;SDS011;51595;24.180;-110.296;2022-08-27T15:57:56;15.43;;;3.50;;
63874;SDS011;51595;24.180;-110.296;2022-08-27T16:00:24;14.57;;;3.58;;